aviador You're here:

KDRT Decoded Metar

DEL RIO in TX, USA
Report Time2017-11-19 20:53:00
UTC Time2017-11-19 21:46:38
Flight Rules vfr VFR
Wind140° at 07 kt
W.Decomp.*RWY 13: 7.0 kt HW 0.2 kt RCW
W.Rank140° ranks 5
Current wind is below 140° avg. (9.8)
Visibility9999 m
Phenomena:N/A
Clouds:N/A
Expected CloudBase > 8,000 ft AGL from Temp-Dew spread
CeilingNone
Temp17°C (ISA +4)
Dew Point-3°C (25% RH)
AAT12.1°C
QNH1024 hPa
Density Alt1,204 ft
Elevation1,027 ft
Report Wrong Elevation
Raw Report
METAR KDRT 192053Z AUTO 14007KT 10SM CLR 17/M03 A3024 RMK AO2 SLP233
T01721033 56041 $=

Extra information for KDRT:More info

Metar Taf Metar & Taf Last 4 Metars F.Rules Stats Wind Profile Meteogram Temp Stats Airport Information Weather charts Add Link Nearby VenuesMetar ALERT Operation Metar Decoded Social comments

AIRNAV info for KDRT